sensor_id;sensor_type;location;lat;lon;timestamp;pressure;altitude;pressure_sealevel;temperature;humidity
84797;BME280;75028;51.374;21.078;2024-03-02T00:00:22;99073.66;;;6.77;97.22
84797;BME280;75028;51.374;21.078;2024-03-02T00:03:11;99070.06;;;6.78;97.12
84797;BME280;75028;51.374;21.078;2024-03-02T00:05:40;99071.03;;;6.77;97.48
84797;BME280;75028;51.374;21.078;2024-03-02T00:08:07;99069.59;;;6.73;97.70
84797;BME280;75028;51.374;21.078;2024-03-02T00:10:39;99070.69;;;6.70;98.22
84797;BME280;75028;51.374;21.078;2024-03-02T00:13:09;99071.06;;;6.66;97.99
84797;BME280;75028;51.374;21.078;2024-03-02T00:15:47;99056.13;;;6.66;98.48
84797;BME280;75028;51.374;21.078;2024-03-02T00:18:19;99064.75;;;6.57;98.59
84797;BME280;75028;51.374;21.078;2024-03-02T00:20:45;99068.22;;;6.58;98.55
84797;BME280;75028;51.374;21.078;2024-03-02T00:23:14;99070.47;;;6.62;98.31
84797;BME280;75028;51.374;21.078;2024-03-02T00:25:42;99068.41;;;6.66;98.24
84797;BME280;75028;51.374;21.078;2024-03-02T00:28:17;99066.41;;;6.69;98.48
84797;BME280;75028;51.374;21.078;2024-03-02T00:33:10;99066.28;;;6.71;98.51
84797;BME280;75028;51.374;21.078;2024-03-02T00:35:36;99064.19;;;6.74;97.93
84797;BME280;75028;51.374;21.078;2024-03-02T00:38:06;99059.97;;;6.83;97.24
84797;BME280;75028;51.374;21.078;2024-03-02T00:40:32;99060.31;;;6.89;97.31
84797;BME280;75028;51.374;21.078;2024-03-02T00:42:58;99065.31;;;6.92;96.81
84797;BME280;75028;51.374;21.078;2024-03-02T00:45:25;99059.81;;;6.95;96.50
84797;BME280;75028;51.374;21.078;2024-03-02T00:47:52;99057.75;;;6.99;96.16
84797;BME280;75028;51.374;21.078;2024-03-02T00:50:18;99064.53;;;7.01;96.26
84797;BME280;75028;51.374;21.078;2024-03-02T00:52:46;99065.88;;;6.96;97.05
84797;BME280;75028;51.374;21.078;2024-03-02T00:55:14;99047.59;;;6.94;96.95
84797;BME280;75028;51.374;21.078;2024-03-02T00:57:40;99055.63;;;6.93;96.73
84797;BME280;75028;51.374;21.078;2024-03-02T01:00:07;99055.75;;;6.91;96.99
84797;BME280;75028;51.374;21.078;2024-03-02T01:02:36;99057.56;;;6.91;97.02
84797;BME280;75028;51.374;21.078;2024-03-02T01:05:02;99054.34;;;6.87;97.01
84797;BME280;75028;51.374;21.078;2024-03-02T01:07:28;99050.31;;;6.83;96.91
84797;BME280;75028;51.374;21.078;2024-03-02T01:09:54;99047.81;;;6.82;96.94
84797;BME280;75028;51.374;21.078;2024-03-02T01:12:20;99044.47;;;6.80;96.95
84797;BME280;75028;51.374;21.078;2024-03-02T01:14:46;99041.41;;;6.75;97.08
84797;BME280;75028;51.374;21.078;2024-03-02T01:17:12;99047.63;;;6.74;97.49
84797;BME280;75028;51.374;21.078;2024-03-02T01:19:41;99029.13;;;6.64;97.61
84797;BME280;75028;51.374;21.078;2024-03-02T01:22:08;99043.88;;;6.56;98.16
84797;BME280;75028;51.374;21.078;2024-03-02T01:24:33;99039.50;;;6.45;98.25
84797;BME280;75028;51.374;21.078;2024-03-02T01:27:00;99042.81;;;6.47;98.38
84797;BME280;75028;51.374;21.078;2024-03-02T01:29:26;99034.69;;;6.50;98.11
84797;BME280;75028;51.374;21.078;2024-03-02T01:31:52;99031.94;;;6.52;97.99
84797;BME280;75028;51.374;21.078;2024-03-02T01:34:19;99031.38;;;6.48;98.92
84797;BME280;75028;51.374;21.078;2024-03-02T01:36:45;99028.16;;;6.45;98.59
84797;BME280;75028;51.374;21.078;2024-03-02T01:39:11;99028.91;;;6.36;98.66
84797;BME280;75028;51.374;21.078;2024-03-02T01:41:37;99022.84;;;6.35;98.84
84797;BME280;75028;51.374;21.078;2024-03-02T01:44:04;99019.97;;;6.38;98.79
84797;BME280;75028;51.374;21.078;2024-03-02T01:46:30;99021.88;;;6.36;99.32
84797;BME280;75028;51.374;21.078;2024-03-02T01:48:56;99017.34;;;6.38;99.32
84797;BME280;75028;51.374;21.078;2024-03-02T01:51:22;99013.94;;;6.47;99.03
84797;BME280;75028;51.374;21.078;2024-03-02T01:53:48;99015.22;;;6.53;98.25
84797;BME280;75028;51.374;21.078;2024-03-02T01:56:14;99014.97;;;6.56;98.38
84797;BME280;75028;51.374;21.078;2024-03-02T01:58:40;99020.56;;;6.62;98.30
84797;BME280;75028;51.374;21.078;2024-03-02T02:01:07;99010.31;;;6.59;98.86
84797;BME280;75028;51.374;21.078;2024-03-02T02:03:33;99004.22;;;6.59;99.11
84797;BME280;75028;51.374;21.078;2024-03-02T02:05:59;99009.59;;;6.57;98.68
84797;BME280;75028;51.374;21.078;2024-03-02T02:08:25;99010.09;;;6.51;99.05
84797;BME280;75028;51.374;21.078;2024-03-02T02:10:51;99008.91;;;6.55;97.99
84797;BME280;75028;51.374;21.078;2024-03-02T02:13:18;99005.81;;;6.50;98.07
84797;BME280;75028;51.374;21.078;2024-03-02T02:15:44;99008.44;;;6.50;98.13
84797;BME280;75028;51.374;21.078;2024-03-02T02:18:10;99009.06;;;6.43;98.65
84797;BME280;75028;51.374;21.078;2024-03-02T02:20:36;99003.13;;;6.41;98.41
84797;BME280;75028;51.374;21.078;2024-03-02T02:23:03;98999.69;;;6.29;99.53
84797;BME280;75028;51.374;21.078;2024-03-02T02:25:31;99006.97;;;6.26;98.78
84797;BME280;75028;51.374;21.078;2024-03-02T02:27:57;98996.16;;;6.19;99.17
84797;BME280;75028;51.374;21.078;2024-03-02T02:30:29;98997.06;;;5.98;99.41
84797;BME280;75028;51.374;21.078;2024-03-02T02:32:55;98994.81;;;5.93;99.60
84797;BME280;75028;51.374;21.078;2024-03-02T02:35:21;98998.03;;;5.97;99.47
84797;BME280;75028;51.374;21.078;2024-03-02T02:37:49;98994.94;;;5.81;98.98
84797;BME280;75028;51.374;21.078;2024-03-02T02:40:16;98996.50;;;5.72;100.00
84797;BME280;75028;51.374;21.078;2024-03-02T02:42:44;98999.75;;;5.54;100.00
84797;BME280;75028;51.374;21.078;2024-03-02T02:45:10;99004.63;;;5.58;100.00
84797;BME280;75028;51.374;21.078;2024-03-02T02:47:43;99001.06;;;5.48;100.00
84797;BME280;75028;51.374;21.078;2024-03-02T02:50:11;99002.16;;;5.46;100.00
84797;BME280;75028;51.374;21.078;2024-03-02T02:52:39;98998.06;;;5.42;100.00
84797;BME280;75028;51.374;21.078;2024-03-02T02:55:08;98996.66;;;5.38;100.00
84797;BME280;75028;51.374;21.078;2024-03-02T02:57:35;98990.38;;;5.40;100.00
84797;BME280;75028;51.374;21.078;2024-03-02T03:00:04;98993.56;;;5.44;100.00
84797;BME280;75028;51.374;21.078;2024-03-02T03:02:31;98985.22;;;5.39;100.00
84797;BME280;75028;51.374;21.078;2024-03-02T03:04:57;98984.84;;;5.54;100.00
84797;BME280;75028;51.374;21.078;2024-03-02T03:07:23;98985.91;;;5.63;100.00
84797;BME280;75028;51.374;21.078;2024-03-02T03:09:49;98987.44;;;5.65;100.00
84797;BME280;75028;51.374;21.078;2024-03-02T03:12:15;98978.28;;;5.60;100.00
84797;BME280;75028;51.374;21.078;2024-03-02T03:14:41;98975.06;;;5.56;100.00
84797;BME280;75028;51.374;21.078;2024-03-02T03:17:07;98977.47;;;5.48;100.00
84797;BME280;75028;51.374;21.078;2024-03-02T03:19:34;98979.72;;;5.53;100.00
84797;BME280;75028;51.374;21.078;2024-03-02T03:22:00;98971.97;;;5.51;100.00
84797;BME280;75028;51.374;21.078;2024-03-02T03:24:26;98979.84;;;5.51;100.00
84797;BME280;75028;51.374;21.078;2024-03-02T03:26:52;98978.66;;;5.55;100.00
84797;BME280;75028;51.374;21.078;2024-03-02T03:29:18;98978.88;;;5.52;100.00
84797;BME280;75028;51.374;21.078;2024-03-02T03:31:44;98977.00;;;5.54;100.00
84797;BME280;75028;51.374;21.078;2024-03-02T03:34:10;98982.63;;;5.39;100.00
84797;BME280;75028;51.374;21.078;2024-03-02T03:36:41;98975.56;;;5.39;100.00
84797;BME280;75028;51.374;21.078;2024-03-02T03:39:08;98963.88;;;5.43;100.00
84797;BME280;75028;51.374;21.078;2024-03-02T03:41:34;98971.88;;;5.53;100.00
84797;BME280;75028;51.374;21.078;2024-03-02T03:44:00;98956.22;;;5.62;100.00
84797;BME280;75028;51.374;21.078;2024-03-02T03:46:25;98958.97;;;5.61;100.00
84797;BME280;75028;51.374;21.078;2024-03-02T03:48:52;98959.56;;;5.64;100.00
84797;BME280;75028;51.374;21.078;2024-03-02T03:51:18;98956.69;;;5.67;100.00
84797;BME280;75028;51.374;21.078;2024-03-02T03:53:44;98955.84;;;5.67;100.00
84797;BME280;75028;51.374;21.078;2024-03-02T03:56:10;98963.47;;;5.70;100.00
84797;BME280;75028;51.374;21.078;2024-03-02T03:58:36;98959.16;;;5.69;100.00
84797;BME280;75028;51.374;21.078;2024-03-02T04:01:02;98953.22;;;5.67;100.00
84797;BME280;75028;51.374;21.078;2024-03-02T04:03:28;98949.41;;;5.71;100.00
84797;BME280;75028;51.374;21.078;2024-03-02T04:05:54;98952.88;;;5.71;100.00
84797;BME280;75028;51.374;21.078;2024-03-02T04:08:20;98951.91;;;5.72;100.00
84797;BME280;75028;51.374;21.078;2024-03-02T04:10:46;98945.13;;;5.70;100.00
84797;BME280;75028;51.374;21.078;2024-03-02T04:13:13;98949.66;;;5.68;100.00
84797;BME280;75028;51.374;21.078;2024-03-02T04:15:39;98946.78;;;5.71;100.00
84797;BME280;75028;51.374;21.078;2024-03-02T04:18:06;98947.38;;;5.74;100.00
84797;BME280;75028;51.374;21.078;2024-03-02T04:20:32;98941.88;;;5.77;100.00
84797;BME280;75028;51.374;21.078;2024-03-02T04:22:58;98947.63;;;5.82;100.00
84797;BME280;75028;51.374;21.078;2024-03-02T04:25:24;98951.53;;;5.88;100.00
84797;BME280;75028;51.374;21.078;2024-03-02T04:27:51;98944.75;;;5.85;100.00
84797;BME280;75028;51.374;21.078;2024-03-02T04:30:17;98957.88;;;5.85;100.00
84797;BME280;75028;51.374;21.078;2024-03-02T04:32:43;98961.06;;;5.89;100.00
84797;BME280;75028;51.374;21.078;2024-03-02T04:35:12;98962.38;;;5.94;100.00
84797;BME280;75028;51.374;21.078;2024-03-02T04:37:38;98961.16;;;5.98;100.00
84797;BME280;75028;51.374;21.078;2024-03-02T04:40:05;98956.16;;;5.95;100.00
84797;BME280;75028;51.374;21.078;2024-03-02T04:42:34;98958.91;;;5.94;100.00
84797;BME280;75028;51.374;21.078;2024-03-02T04:45:01;98953.53;;;5.95;100.00
84797;BME280;75028;51.374;21.078;2024-03-02T04:47:27;98947.31;;;5.96;100.00
84797;BME280;75028;51.374;21.078;2024-03-02T04:49:53;98946.22;;;5.99;100.00
84797;BME280;75028;51.374;21.078;2024-03-02T04:52:19;98950.66;;;5.98;100.00
84797;BME280;75028;51.374;21.078;2024-03-02T04:54:45;98961.50;;;6.05;100.00
84797;BME280;75028;51.374;21.078;2024-03-02T04:57:30;98963.16;;;6.06;100.00
84797;BME280;75028;51.374;21.078;2024-03-02T04:59:56;98964.13;;;6.05;100.00
84797;BME280;75028;51.374;21.078;2024-03-02T05:02:22;98964.59;;;6.10;100.00
84797;BME280;75028;51.374;21.078;2024-03-02T05:04:48;98983.28;;;6.16;100.00
84797;BME280;75028;51.374;21.078;2024-03-02T05:07:14;98977.78;;;6.19;100.00
84797;BME280;75028;51.374;21.078;2024-03-02T05:09:41;98985.16;;;6.25;100.00
84797;BME280;75028;51.374;21.078;2024-03-02T05:12:07;98977.97;;;6.27;100.00
84797;BME280;75028;51.374;21.078;2024-03-02T05:14:43;98986.56;;;6.29;100.00
84797;BME280;75028;51.374;21.078;2024-03-02T05:17:09;98992.66;;;6.30;100.00
84797;BME280;75028;51.374;21.078;2024-03-02T05:19:35;98995.59;;;6.36;100.00
84797;BME280;75028;51.374;21.078;2024-03-02T05:22:01;98985.94;;;6.37;100.00
84797;BME280;75028;51.374;21.078;2024-03-02T05:24:27;98990.81;;;6.41;100.00
84797;BME280;75028;51.374;21.078;2024-03-02T05:26:53;98977.69;;;6.41;100.00
84797;BME280;75028;51.374;21.078;2024-03-02T05:29:20;98981.25;;;6.40;100.00
84797;BME280;75028;51.374;21.078;2024-03-02T05:31:46;98986.25;;;6.43;100.00
84797;BME280;75028;51.374;21.078;2024-03-02T05:34:13;98987.09;;;6.44;100.00
84797;BME280;75028;51.374;21.078;2024-03-02T05:36:39;99000.00;;;6.47;100.00
84797;BME280;75028;51.374;21.078;2024-03-02T05:39:05;99011.06;;;6.50;99.89
84797;BME280;75028;51.374;21.078;2024-03-02T05:41:35;99006.78;;;6.49;99.98
84797;BME280;75028;51.374;21.078;2024-03-02T05:44:01;99006.78;;;6.49;100.00
84797;BME280;75028;51.374;21.078;2024-03-02T05:46:28;98997.81;;;6.52;100.00
84797;BME280;75028;51.374;21.078;2024-03-02T05:48:54;99000.19;;;6.55;99.68
84797;BME280;75028;51.374;21.078;2024-03-02T05:51:20;98993.81;;;6.57;100.00
84797;BME280;75028;51.374;21.078;2024-03-02T05:53:46;99000.06;;;6.56;99.62
84797;BME280;75028;51.374;21.078;2024-03-02T05:56:12;98993.81;;;6.57;99.51
84797;BME280;75028;51.374;21.078;2024-03-02T05:58:38;99006.03;;;6.58;100.00
84797;BME280;75028;51.374;21.078;2024-03-02T06:01:23;98999.69;;;6.61;99.69
84797;BME280;75028;51.374;21.078;2024-03-02T06:03:55;99004.34;;;6.57;100.00
84797;BME280;75028;51.374;21.078;2024-03-02T06:06:23;98999.69;;;6.61;99.91
84797;BME280;75028;51.374;21.078;2024-03-02T06:08:49;99004.94;;;6.61;99.77
84797;BME280;75028;51.374;21.078;2024-03-02T06:11:15;99000.09;;;6.66;99.37
84797;BME280;75028;51.374;21.078;2024-03-02T06:13:41;98990.44;;;6.66;98.96
84797;BME280;75028;51.374;21.078;2024-03-02T06:16:07;99000.56;;;6.71;99.50
84797;BME280;75028;51.374;21.078;2024-03-02T06:18:34;99001.50;;;6.70;99.56
84797;BME280;75028;51.374;21.078;2024-03-02T06:21:00;99000.31;;;6.74;98.91
84797;BME280;75028;51.374;21.078;2024-03-02T06:23:29;99007.09;;;6.76;98.87
84797;BME280;75028;51.374;21.078;2024-03-02T06:25:55;99010.13;;;6.72;99.11
84797;BME280;75028;51.374;21.078;2024-03-02T06:28:21;99012.91;;;6.80;98.99
84797;BME280;75028;51.374;21.078;2024-03-02T06:30:47;99013.06;;;6.78;99.02
84797;BME280;75028;51.374;21.078;2024-03-02T06:33:13;99013.06;;;6.78;98.90
84797;BME280;75028;51.374;21.078;2024-03-02T06:35:39;99018.53;;;6.86;98.56
84797;BME280;75028;51.374;21.078;2024-03-02T06:38:07;99012.91;;;6.80;98.93
84797;BME280;75028;51.374;21.078;2024-03-02T06:40:34;99027.63;;;6.82;98.72
84797;BME280;75028;51.374;21.078;2024-03-02T06:43:00;99033.69;;;6.83;99.08
84797;BME280;75028;51.374;21.078;2024-03-02T06:45:26;99028.44;;;6.83;99.34
84797;BME280;75028;51.374;21.078;2024-03-02T06:47:52;99028.19;;;6.86;98.58
84797;BME280;75028;51.374;21.078;2024-03-02T06:50:18;99029.59;;;6.90;98.39
84797;BME280;75028;51.374;21.078;2024-03-02T06:52:45;99039.16;;;6.91;98.64
84797;BME280;75028;51.374;21.078;2024-03-02T06:55:11;99038.56;;;6.87;99.04
84797;BME280;75028;51.374;21.078;2024-03-02T06:57:37;99034.59;;;6.93;98.07
84797;BME280;75028;51.374;21.078;2024-03-02T07:00:03;99018.53;;;6.86;98.30
84797;BME280;75028;51.374;21.078;2024-03-02T07:02:31;99029.22;;;6.94;98.15
84797;BME280;75028;51.374;21.078;2024-03-02T07:04:58;99037.81;;;6.96;98.18
84797;BME280;75028;51.374;21.078;2024-03-02T07:07:24;99043.75;;;6.98;98.06
84797;BME280;75028;51.374;21.078;2024-03-02T07:09:49;99034.81;;;7.01;98.08
84797;BME280;75028;51.374;21.078;2024-03-02T07:12:16;99036.59;;;7.00;98.35
84797;BME280;75028;51.374;21.078;2024-03-02T07:14:41;99036.19;;;7.05;97.93
84797;BME280;75028;51.374;21.078;2024-03-02T07:17:36;99026.06;;;7.00;97.52
84797;BME280;75028;51.374;21.078;2024-03-02T07:20:03;99044.13;;;7.14;97.59
84797;BME280;75028;51.374;21.078;2024-03-02T07:22:29;99028.19;;;7.06;97.63
84797;BME280;75028;51.374;21.078;2024-03-02T07:24:55;99043.59;;;7.11;97.51
84797;BME280;75028;51.374;21.078;2024-03-02T07:27:22;99053.00;;;7.13;97.48
84797;BME280;75028;51.374;21.078;2024-03-02T07:29:48;99054.41;;;7.17;97.21
84797;BME280;75028;51.374;21.078;2024-03-02T07:32:14;99052.06;;;7.24;97.73
84797;BME280;75028;51.374;21.078;2024-03-02T07:34:40;99066.91;;;7.25;97.49
84797;BME280;75028;51.374;21.078;2024-03-02T07:37:06;99062.75;;;7.22;97.08
84797;BME280;75028;51.374;21.078;2024-03-02T07:39:33;99053.63;;;7.26;96.70
84797;BME280;75028;51.374;21.078;2024-03-02T07:41:59;99060.69;;;7.26;97.09
84797;BME280;75028;51.374;21.078;2024-03-02T07:44:25;99057.19;;;7.25;96.78
84797;BME280;75028;51.374;21.078;2024-03-02T07:46:51;99064.16;;;7.26;97.29
84797;BME280;75028;51.374;21.078;2024-03-02T07:49:20;99063.44;;;7.24;97.51
84797;BME280;75028;51.374;21.078;2024-03-02T07:51:47;99069.16;;;7.29;96.98
84797;BME280;75028;51.374;21.078;2024-03-02T07:54:13;99058.88;;;7.26;97.35
84797;BME280;75028;51.374;21.078;2024-03-02T07:56:39;99069.28;;;7.28;96.75
84797;BME280;75028;51.374;21.078;2024-03-02T07:59:04;99072.47;;;7.31;96.65
84797;BME280;75028;51.374;21.078;2024-03-02T08:01:32;99062.34;;;7.27;96.78
84797;BME280;75028;51.374;21.078;2024-03-02T08:04:01;99066.94;;;7.34;97.08
84797;BME280;75028;51.374;21.078;2024-03-02T08:06:30;99079.41;;;7.32;97.33
84797;BME280;75028;51.374;21.078;2024-03-02T08:08:57;99079.25;;;7.34;97.41
84797;BME280;75028;51.374;21.078;2024-03-02T08:11:24;99078.56;;;7.32;96.95
84797;BME280;75028;51.374;21.078;2024-03-02T08:13:50;99080.69;;;7.38;96.95
84797;BME280;75028;51.374;21.078;2024-03-02T08:16:18;99077.47;;;7.34;96.95
84797;BME280;75028;51.374;21.078;2024-03-02T08:18:50;99080.22;;;7.33;97.00
84797;BME280;75028;51.374;21.078;2024-03-02T08:21:16;99084.81;;;7.31;96.82
84797;BME280;75028;51.374;21.078;2024-03-02T08:23:43;99086.47;;;7.32;96.85
84797;BME280;75028;51.374;21.078;2024-03-02T08:26:10;99086.34;;;7.33;96.98
84797;BME280;75028;51.374;21.078;2024-03-02T08:28:36;99079.13;;;7.35;96.55
84797;BME280;75028;51.374;21.078;2024-03-02T08:31:03;99084.72;;;7.42;96.99
84797;BME280;75028;51.374;21.078;2024-03-02T08:33:29;99085.28;;;7.45;97.03
84797;BME280;75028;51.374;21.078;2024-03-02T08:35:56;99078.22;;;7.46;96.73
84797;BME280;75028;51.374;21.078;2024-03-02T08:38:22;99088.09;;;7.53;96.85
84797;BME280;75028;51.374;21.078;2024-03-02T08:40:49;99086.41;;;7.52;95.88
84797;BME280;75028;51.374;21.078;2024-03-02T08:43:15;99081.16;;;7.52;96.57
84797;BME280;75028;51.374;21.078;2024-03-02T08:45:42;99085.91;;;7.58;96.17
84797;BME280;75028;51.374;21.078;2024-03-02T08:48:08;99085.59;;;7.52;95.59
84797;BME280;75028;51.374;21.078;2024-03-02T08:50:35;99083.28;;;7.58;96.26
84797;BME280;75028;51.374;21.078;2024-03-02T08:53:04;99095.06;;;7.64;95.78
84797;BME280;75028;51.374;21.078;2024-03-02T08:55:31;99090.38;;;7.67;96.22
84797;BME280;75028;51.374;21.078;2024-03-02T08:57:57;99084.88;;;7.70;96.15
84797;BME280;75028;51.374;21.078;2024-03-02T09:00:23;99082.66;;;7.75;95.38
84797;BME280;75028;51.374;21.078;2024-03-02T09:02:50;99080.88;;;7.76;95.91
84797;BME280;75028;51.374;21.078;2024-03-02T09:05:16;99088.50;;;7.79;95.18
84797;BME280;75028;51.374;21.078;2024-03-02T09:07:42;99086.28;;;7.84;95.03
84797;BME280;75028;51.374;21.078;2024-03-02T09:10:08;99086.16;;;7.85;94.92
84797;BME280;75028;51.374;21.078;2024-03-02T09:12:35;99083.38;;;7.87;95.04
84797;BME280;75028;51.374;21.078;2024-03-02T09:15:02;99084.91;;;7.89;95.06
84797;BME280;75028;51.374;21.078;2024-03-02T09:17:31;99074.69;;;7.87;94.96
84797;BME280;75028;51.374;21.078;2024-03-02T09:19:57;99090.50;;;7.96;94.86
84797;BME280;75028;51.374;21.078;2024-03-02T09:22:23;99090.22;;;7.99;94.15
84797;BME280;75028;51.374;21.078;2024-03-02T09:24:50;99079.69;;;7.99;94.79
84797;BME280;75028;51.374;21.078;2024-03-02T09:27:16;99085.97;;;8.08;94.27
84797;BME280;75028;51.374;21.078;2024-03-02T09:29:42;99087.47;;;8.10;93.99
84797;BME280;75028;51.374;21.078;2024-03-02T09:32:11;99091.38;;;8.16;94.01
84797;BME280;75028;51.374;21.078;2024-03-02T09:34:38;99072.25;;;8.14;94.67
84797;BME280;75028;51.374;21.078;2024-03-02T09:37:04;99076.72;;;8.23;94.72
84797;BME280;75028;51.374;21.078;2024-03-02T09:39:30;99079.47;;;8.21;94.29
84797;BME280;75028;51.374;21.078;2024-03-02T09:41:57;99071.91;;;8.28;94.43
84797;BME280;75028;51.374;21.078;2024-03-02T09:44:25;99068.84;;;8.32;94.20
84797;BME280;75028;51.374;21.078;2024-03-02T09:46:52;99067.56;;;8.27;93.38
84797;BME280;75028;51.374;21.078;2024-03-02T09:49:18;99070.75;;;8.21;93.69
84797;BME280;75028;51.374;21.078;2024-03-02T09:51:48;99075.47;;;8.27;93.74
84797;BME280;75028;51.374;21.078;2024-03-02T09:54:17;99069.19;;;8.18;94.00
84797;BME280;75028;51.374;21.078;2024-03-02T09:56:44;99073.50;;;8.19;93.68
84797;BME280;75028;51.374;21.078;2024-03-02T09:59:10;99075.44;;;8.17;94.55
84797;BME280;75028;51.374;21.078;2024-03-02T10:01:37;99079.47;;;8.21;94.48
84797;BME280;75028;51.374;21.078;2024-03-02T10:04:05;99072.31;;;8.23;93.80
84797;BME280;75028;51.374;21.078;2024-03-02T10:06:31;99073.97;;;8.24;93.38
84797;BME280;75028;51.374;21.078;2024-03-02T10:08:57;99074.53;;;8.28;93.73
84797;BME280;75028;51.374;21.078;2024-03-02T10:11:35;99078.56;;;8.41;93.79
84797;BME280;75028;51.374;21.078;2024-03-02T10:14:07;99082.59;;;8.55;93.66
84797;BME280;75028;51.374;21.078;2024-03-02T10:16:35;99072.59;;;8.58;92.77
84797;BME280;75028;51.374;21.078;2024-03-02T10:19:28;99073.47;;;8.78;92.86
84797;BME280;75028;51.374;21.078;2024-03-02T10:21:59;99082.63;;;8.83;92.51
84797;BME280;75028;51.374;21.078;2024-03-02T10:24:25;99069.44;;;8.83;91.97
84797;BME280;75028;51.374;21.078;2024-03-02T10:26:52;99069.69;;;8.99;91.91
84797;BME280;75028;51.374;21.078;2024-03-02T10:29:18;99067.75;;;9.01;91.11
84797;BME280;75028;51.374;21.078;2024-03-02T10:31:45;99068.41;;;9.13;91.36
84797;BME280;75028;51.374;21.078;2024-03-02T10:34:14;99066.88;;;9.20;90.92
84797;BME280;75028;51.374;21.078;2024-03-02T10:36:43;99059.94;;;9.19;90.11
84797;BME280;75028;51.374;21.078;2024-03-02T10:39:10;99073.53;;;9.24;91.15
84797;BME280;75028;51.374;21.078;2024-03-02T10:41:38;99075.72;;;9.38;90.94
84797;BME280;75028;51.374;21.078;2024-03-02T10:44:06;99078.91;;;9.41;90.36
84797;BME280;75028;51.374;21.078;2024-03-02T10:46:34;99075.56;;;9.49;90.79
84797;BME280;75028;51.374;21.078;2024-03-02T10:49:01;99070.81;;;9.52;89.96
84797;BME280;75028;51.374;21.078;2024-03-02T10:51:32;99071.09;;;9.59;89.17
84797;BME280;75028;51.374;21.078;2024-03-02T10:53:59;99078.53;;;9.63;88.21
84797;BME280;75028;51.374;21.078;2024-03-02T10:56:32;99077.03;;;9.61;89.99
84797;BME280;75028;51.374;21.078;2024-03-02T10:59:03;99077.88;;;9.61;89.58
84797;BME280;75028;51.374;21.078;2024-03-02T11:01:31;99077.91;;;9.52;88.43
84797;BME280;75028;51.374;21.078;2024-03-02T11:03:59;99073.31;;;9.54;89.22
84797;BME280;75028;51.374;21.078;2024-03-02T11:06:28;99077.75;;;9.53;90.07
84797;BME280;75028;51.374;21.078;2024-03-02T11:08:56;99066.22;;;9.54;88.93
84797;BME280;75028;51.374;21.078;2024-03-02T11:11:29;99072.75;;;9.60;89.20
84797;BME280;75028;51.374;21.078;2024-03-02T11:13:57;99070.47;;;9.65;88.94
84797;BME280;75028;51.374;21.078;2024-03-02T11:16:34;99063.03;;;9.60;89.40
84797;BME280;75028;51.374;21.078;2024-03-02T11:19:13;99056.47;;;9.64;89.75
84797;BME280;75028;51.374;21.078;2024-03-02T11:21:41;99059.34;;;9.71;88.17
84797;BME280;75028;51.374;21.078;2024-03-02T11:26:50;99059.06;;;9.74;89.92
84797;BME280;75028;51.374;21.078;2024-03-02T11:34:41;99049.50;;;9.63;90.47
84797;BME280;75028;51.374;21.078;2024-03-02T11:37:13;99058.81;;;9.67;90.57
84797;BME280;75028;51.374;21.078;2024-03-02T11:39:40;99049.34;;;9.65;90.42
84797;BME280;75028;51.374;21.078;2024-03-02T11:42:07;99061.09;;;9.53;89.88
84797;BME280;75028;51.374;21.078;2024-03-02T11:44:36;99058.59;;;9.51;90.75
84797;BME280;75028;51.374;21.078;2024-03-02T11:47:08;99052.47;;;9.51;89.15
84797;BME280;75028;51.374;21.078;2024-03-02T11:49:50;99057.75;;;9.51;89.21
84797;BME280;75028;51.374;21.078;2024-03-02T11:52:18;99059.53;;;9.60;90.27
84797;BME280;75028;51.374;21.078;2024-03-02T11:54:45;99065.63;;;9.70;90.65
84797;BME280;75028;51.374;21.078;2024-03-02T11:57:19;99058.69;;;9.69;89.05
84797;BME280;75028;51.374;21.078;2024-03-02T11:59:46;99056.84;;;9.69;88.99
84797;BME280;75028;51.374;21.078;2024-03-02T12:02:17;99053.00;;;9.64;88.49
84797;BME280;75028;51.374;21.078;2024-03-02T12:04:44;99049.34;;;9.65;89.40
84797;BME280;75028;51.374;21.078;2024-03-02T12:07:11;99059.50;;;9.69;91.02
84797;BME280;75028;51.374;21.078;2024-03-02T12:09:38;99046.34;;;9.60;89.17
84797;BME280;75028;51.374;21.078;2024-03-02T12:12:05;99042.34;;;9.56;89.63
84797;BME280;75028;51.374;21.078;2024-03-02T12:14:32;99046.53;;;9.49;89.14
84797;BME280;75028;51.374;21.078;2024-03-02T12:16:58;99050.25;;;9.56;89.25
84797;BME280;75028;51.374;21.078;2024-03-02T12:19:25;99051.03;;;9.66;89.76
84797;BME280;75028;51.374;21.078;2024-03-02T12:21:53;99052.41;;;9.70;89.64
84797;BME280;75028;51.374;21.078;2024-03-02T12:24:21;99045.44;;;9.78;89.62
84797;BME280;75028;51.374;21.078;2024-03-02T12:26:49;99042.22;;;9.75;88.28
84797;BME280;75028;51.374;21.078;2024-03-02T12:29:16;99042.38;;;9.73;89.08
84797;BME280;75028;51.374;21.078;2024-03-02T12:31:42;99040.06;;;9.70;88.98
84797;BME280;75028;51.374;21.078;2024-03-02T12:34:13;99044.28;;;9.81;89.02
84797;BME280;75028;51.374;21.078;2024-03-02T12:36:40;99049.84;;;9.87;89.18
84797;BME280;75028;51.374;21.078;2024-03-02T12:39:08;99052.41;;;9.97;88.94
84797;BME280;75028;51.374;21.078;2024-03-02T12:41:37;99041.00;;;9.96;88.25
84797;BME280;75028;51.374;21.078;2024-03-02T12:44:04;99044.19;;;10.00;89.66
84797;BME280;75028;51.374;21.078;2024-03-02T12:46:34;99052.78;;;10.02;88.25
84797;BME280;75028;51.374;21.078;2024-03-02T12:49:12;99045.78;;;9.93;88.85
84797;BME280;75028;51.374;21.078;2024-03-02T12:51:40;99056.19;;;9.94;88.35
84797;BME280;75028;51.374;21.078;2024-03-02T12:54:07;99046.66;;;9.84;89.31
84797;BME280;75028;51.374;21.078;2024-03-02T12:56:35;99052.63;;;9.86;88.53
84797;BME280;75028;51.374;21.078;2024-03-02T12:59:02;99051.50;;;9.88;88.71
84797;BME280;75028;51.374;21.078;2024-03-02T13:01:28;99047.34;;;9.86;88.89
84797;BME280;75028;51.374;21.078;2024-03-02T13:03:54;99043.56;;;9.88;88.72
84797;BME280;75028;51.374;21.078;2024-03-02T13:06:21;99046.78;;;9.82;88.90
84797;BME280;75028;51.374;21.078;2024-03-02T13:08:47;99044.16;;;9.82;88.99